Time;durP1;ratioP1;P1;durP2;ratioP2;P2;SDS_P1;SDS_P2;PMS_P1;PMS_P2;Temp;Humidity;BMP_temperature;BMP_pressure;BME280_temperature;BME280_humidity;BME280_pressure;Samples;Min_cycle;Max_cycle;Signal;HPM_P1;HPM_P2
2023/12/08 00:02:06;;;;;;;25.95;13.52;;;2.80;99.90;;;;;;5005180;28;20065;-60
2023/12/08 00:04:34;;;;;;;21.80;14.20;;;2.80;99.90;;;;;;5022116;28;20623;-61
2023/12/08 00:07:00;;;;;;;21.52;12.82;;;2.80;99.90;;;;;;5025066;28;20046;-60
2023/12/08 00:09:26;;;;;;;20.77;13.35;;;2.80;99.90;;;;;;5025474;28;20045;-60
2023/12/08 00:11:52;;;;;;;20.60;12.90;;;2.80;99.90;;;;;;4992862;28;20068;-60
2023/12/08 00:14:17;;;;;;;21.08;13.32;;;2.80;99.90;;;;;;5023503;28;20044;-61
2023/12/08 00:16:43;;;;;;;22.13;13.48;;;2.80;99.90;;;;;;5025192;28;20037;-60
2023/12/08 00:19:12;;;;;;;21.23;13.13;;;2.80;99.90;;;;;;5009260;28;20029;-61
2023/12/08 00:21:37;;;;;;;20.42;12.55;;;2.80;99.90;;;;;;5009996;28;20129;-60
2023/12/08 00:24:04;;;;;;;26.10;14.02;;;2.80;99.90;;;;;;5022945;28;20682;-61
2023/12/08 00:26:29;;;;;;;22.38;13.93;;;2.80;99.90;;;;;;5012096;28;20041;-60
2023/12/08 00:28:55;;;;;;;23.60;14.48;;;2.80;99.90;;;;;;5009921;28;20382;-60
2023/12/08 00:31:52;;;;;;;25.58;12.75;;;2.80;99.90;;;;;;5025075;28;20103;-60
2023/12/08 00:34:18;;;;;;;21.83;13.32;;;2.70;99.90;;;;;;5006838;28;20438;-60
2023/12/08 00:36:44;;;;;;;20.60;13.60;;;2.70;99.90;;;;;;5012994;28;20045;-59
2023/12/08 00:39:10;;;;;;;18.85;12.10;;;2.70;99.90;;;;;;5032679;28;20641;-60
2023/12/08 00:41:35;;;;;;;22.85;13.43;;;2.70;99.90;;;;;;5023899;28;20041;-61
2023/12/08 00:44:01;;;;;;;19.83;11.77;;;2.70;99.90;;;;;;4996646;28;20483;-60
2023/12/08 00:46:28;;;;;;;19.70;13.02;;;2.70;99.90;;;;;;5011061;28;20041;-60
2023/12/08 00:48:53;;;;;;;22.27;12.65;;;2.70;99.90;;;;;;5011510;28;20588;-60
2023/12/08 00:51:19;;;;;;;20.50;13.00;;;2.70;99.90;;;;;;5012522;28;20037;-61
2023/12/08 00:53:45;;;;;;;20.30;12.52;;;2.70;99.90;;;;;;5010396;28;20033;-59
2023/12/08 00:56:10;;;;;;;22.02;12.63;;;2.70;99.90;;;;;;5009902;28;20037;-59
2023/12/08 00:58:37;;;;;;;23.48;12.70;;;2.70;99.90;;;;;;5011295;28;20045;-59
2023/12/08 01:01:03;;;;;;;20.55;12.98;;;2.70;99.90;;;;;;5009482;28;20037;-60
2023/12/08 01:03:29;;;;;;;21.75;13.13;;;2.70;99.90;;;;;;5027748;28;20045;-60
2023/12/08 01:05:54;;;;;;;18.70;12.27;;;2.70;99.90;;;;;;5026174;28;20148;-61
2023/12/08 01:08:20;;;;;;;18.25;12.68;;;2.70;99.90;;;;;;5009846;28;20046;-60
2023/12/08 01:10:46;;;;;;;19.92;11.68;;;2.70;99.90;;;;;;5004946;28;20505;-60
2023/12/08 01:13:11;;;;;;;19.73;11.75;;;2.80;99.90;;;;;;5009407;28;20097;-61
2023/12/08 01:15:37;;;;;;;18.95;11.88;;;2.70;99.90;;;;;;5009942;28;20048;-61
2023/12/08 01:18:03;;;;;;;24.20;12.73;;;2.70;99.90;;;;;;5008701;28;20042;-60
2023/12/08 01:20:28;;;;;;;19.58;12.82;;;2.80;99.90;;;;;;5027417;28;20046;-60
2023/12/08 01:22:54;;;;;;;17.63;10.88;;;2.80;99.90;;;;;;5009140;28;20048;-60
2023/12/08 01:25:20;;;;;;;18.08;11.15;;;2.80;99.90;;;;;;5008867;28;20048;-60
2023/12/08 01:27:45;;;;;;;18.65;12.18;;;2.80;99.90;;;;;;5009259;28;20045;-60
2023/12/08 01:30:11;;;;;;;18.33;11.90;;;2.80;99.90;;;;;;5008040;28;20041;-60
2023/12/08 01:32:37;;;;;;;20.58;12.00;;;2.80;99.90;;;;;;5009925;28;20041;-60
2023/12/08 01:35:03;;;;;;;17.60;11.38;;;2.80;99.90;;;;;;5010277;28;20049;-60
2023/12/08 01:37:29;;;;;;;20.23;12.90;;;2.80;99.90;;;;;;5010052;28;20038;-60
2023/12/08 01:39:55;;;;;;;17.30;11.88;;;2.80;99.90;;;;;;5010278;28;20493;-60
2023/12/08 01:42:20;;;;;;;18.15;11.65;;;2.80;99.90;;;;;;5008985;28;20037;-59
2023/12/08 01:44:46;;;;;;;19.45;11.68;;;2.80;99.90;;;;;;5009359;28;20041;-61
2023/12/08 01:47:12;;;;;;;17.35;11.38;;;2.80;99.90;;;;;;5007321;28;20557;-60
2023/12/08 01:49:39;;;;;;;18.23;11.95;;;2.80;99.90;;;;;;5026654;28;20042;-60
2023/12/08 01:52:06;;;;;;;21.75;12.52;;;2.80;99.90;;;;;;5025079;28;20726;-60
2023/12/08 01:54:33;;;;;;;19.25;11.73;;;2.80;99.90;;;;;;5008977;28;20071;-60
2023/12/08 01:57:00;;;;;;;17.25;11.32;;;2.80;99.90;;;;;;5008584;28;20037;-61
2023/12/08 01:59:27;;;;;;;20.67;12.60;;;2.70;99.90;;;;;;5023390;28;20042;-60
2023/12/08 02:01:52;;;;;;;21.10;12.20;;;2.80;99.90;;;;;;4988353;28;20045;-60
2023/12/08 02:04:18;;;;;;;20.25;12.52;;;2.80;99.90;;;;;;5025044;28;20082;-60
2023/12/08 02:06:44;;;;;;;19.08;12.23;;;2.80;99.90;;;;;;5025176;28;20029;-60
2023/12/08 02:09:09;;;;;;;20.17;12.80;;;2.70;99.90;;;;;;5005956;28;20034;-60
2023/12/08 02:11:36;;;;;;;20.40;13.20;;;2.80;99.90;;;;;;5010091;28;20033;-60
2023/12/08 02:14:03;;;;;;;18.88;12.57;;;2.80;99.90;;;;;;5023097;28;20116;-60
2023/12/08 02:16:48;;;;;;;20.35;12.55;;;2.70;99.90;;;;;;5024008;28;20046;-60
2023/12/08 02:19:16;;;;;;;19.90;12.77;;;2.70;99.90;;;;;;4990404;28;20491;-60
2023/12/08 02:21:42;;;;;;;21.30;12.18;;;2.70;99.90;;;;;;5025381;28;20063;-60
2023/12/08 02:24:08;;;;;;;21.02;13.30;;;2.80;99.90;;;;;;5007385;28;20108;-60
2023/12/08 02:26:34;;;;;;;24.83;13.48;;;2.70;99.90;;;;;;5029016;28;20428;-60
2023/12/08 02:29:00;;;;;;;22.67;13.05;;;2.70;99.90;;;;;;5004557;28;20472;-60
2023/12/08 02:31:39;;;;;;;19.98;12.02;;;2.70;99.90;;;;;;5005373;28;20045;-60
2023/12/08 02:34:06;;;;;;;22.35;13.50;;;2.70;99.90;;;;;;5004812;28;20065;-60
2023/12/08 02:36:34;;;;;;;24.10;13.73;;;2.70;99.90;;;;;;4992376;28;20120;-61
2023/12/08 02:39:02;;;;;;;20.45;13.45;;;2.70;99.90;;;;;;5023390;28;20057;-60
2023/12/08 02:41:29;;;;;;;21.00;13.82;;;2.70;99.90;;;;;;5006869;28;20103;-60
2023/12/08 02:43:54;;;;;;;21.50;13.70;;;2.70;99.90;;;;;;5005781;28;20140;-61
2023/12/08 02:46:20;;;;;;;20.30;13.20;;;2.70;99.90;;;;;;5007560;28;20660;-60
2023/12/08 02:48:46;;;;;;;20.92;13.93;;;2.70;99.90;;;;;;4974242;28;20160;-60
2023/12/08 02:51:11;;;;;;;20.15;14.13;;;2.70;99.90;;;;;;5002264;28;20432;-61
2023/12/08 02:53:37;;;;;;;24.27;15.10;;;2.70;99.90;;;;;;5007465;28;20044;-61
2023/12/08 02:56:03;;;;;;;22.42;13.65;;;2.70;99.90;;;;;;5007929;28;20042;-60
2023/12/08 02:58:29;;;;;;;19.42;13.35;;;2.70;99.90;;;;;;5022962;28;20136;-60
2023/12/08 03:00:54;;;;;;;22.25;14.32;;;2.60;99.90;;;;;;5010114;28;20084;-61
2023/12/08 03:03:20;;;;;;;23.17;13.85;;;2.60;99.90;;;;;;5022654;28;20037;-61
2023/12/08 03:05:46;;;;;;;22.25;14.25;;;2.70;99.90;;;;;;4990997;28;20080;-60
2023/12/08 03:08:11;;;;;;;21.63;14.23;;;2.60;99.90;;;;;;5003052;28;20045;-61
2023/12/08 03:10:37;;;;;;;23.10;14.75;;;2.60;99.90;;;;;;5025202;28;20064;-60
2023/12/08 03:13:03;;;;;;;24.90;15.30;;;2.60;99.90;;;;;;4999965;28;20125;-60
2023/12/08 03:15:28;;;;;;;24.63;15.32;;;2.60;99.90;;;;;;5002813;28;20041;-60
2023/12/08 03:17:54;;;;;;;23.95;15.25;;;2.60;99.90;;;;;;4985047;28;20038;-59
2023/12/08 03:20:38;;;;;;;23.58;14.73;;;2.60;99.90;;;;;;5020714;28;20042;-60
2023/12/08 03:23:05;;;;;;;21.70;13.00;;;2.60;99.90;;;;;;5005890;28;20034;-60
2023/12/08 03:25:30;;;;;;;24.20;14.80;;;2.60;99.90;;;;;;5022589;28;20041;-60
2023/12/08 03:27:56;;;;;;;23.95;15.18;;;2.60;99.90;;;;;;4981313;28;20567;-60
2023/12/08 03:30:22;;;;;;;23.10;14.57;;;2.60;99.90;;;;;;5003558;28;20042;-61
2023/12/08 03:33:22;;;;;;;20.55;13.55;;;2.60;99.90;;;;;;4990271;28;20038;-60
2023/12/08 03:36:00;;;;;;;23.33;15.05;;;2.70;99.90;;;;;;5008240;28;20040;-60
2023/12/08 03:38:26;;;;;;;23.50;14.80;;;2.60;99.90;;;;;;5004721;28;20047;-60
2023/12/08 03:40:52;;;;;;;23.58;15.40;;;2.60;99.90;;;;;;5004998;28;20048;-60
2023/12/08 03:43:17;;;;;;;23.95;16.30;;;2.60;99.90;;;;;;5020811;28;20055;-60
2023/12/08 03:45:44;;;;;;;23.25;14.40;;;2.50;99.90;;;;;;5026401;28;20049;-61
2023/12/08 03:48:09;;;;;;;24.05;15.45;;;2.50;99.90;;;;;;5009362;28;20054;-60
2023/12/08 03:50:35;;;;;;;26.52;15.52;;;2.50;99.90;;;;;;5027097;28;20126;-60
2023/12/08 03:53:01;;;;;;;24.90;15.50;;;2.50;99.90;;;;;;5008428;28;20040;-60
2023/12/08 03:55:26;;;;;;;22.70;14.98;;;2.50;99.90;;;;;;5008212;28;20080;-61
2023/12/08 03:57:52;;;;;;;23.58;15.18;;;2.50;99.90;;;;;;5011979;28;20042;-60
2023/12/08 04:00:18;;;;;;;22.77;15.13;;;2.50;99.90;;;;;;5025177;28;20041;-60
2023/12/08 04:02:44;;;;;;;26.38;17.27;;;2.50;99.90;;;;;;5009472;28;20060;-60
2023/12/08 04:05:10;;;;;;;25.02;16.33;;;2.50;99.90;;;;;;5011189;28;20045;-60
2023/12/08 04:07:35;;;;;;;27.05;16.52;;;2.50;99.90;;;;;;5025409;28;20068;-60
2023/12/08 04:10:01;;;;;;;25.08;16.42;;;2.40;99.90;;;;;;5014373;28;20076;-60
2023/12/08 04:12:27;;;;;;;30.10;18.52;;;2.40;99.90;;;;;;5026338;28;20558;-60
2023/12/08 04:14:53;;;;;;;29.95;17.23;;;2.40;99.90;;;;;;5006633;28;20072;-60
2023/12/08 04:17:18;;;;;;;31.00;17.50;;;2.30;99.90;;;;;;4992317;28;20073;-60
2023/12/08 04:19:44;;;;;;;28.60;18.38;;;2.30;99.90;;;;;;5004189;28;20037;-61
2023/12/08 04:22:10;;;;;;;26.88;17.90;;;2.30;99.90;;;;;;4991896;28;20536;-60
2023/12/08 04:24:35;;;;;;;28.73;17.50;;;2.30;99.90;;;;;;4991011;28;20045;-60
2023/12/08 04:27:01;;;;;;;34.92;20.45;;;2.20;99.90;;;;;;5007481;28;20646;-60
2023/12/08 04:29:27;;;;;;;31.38;19.27;;;2.20;99.90;;;;;;5009555;28;20085;-61
2023/12/08 04:31:53;;;;;;;31.77;19.90;;;2.20;99.90;;;;;;4990774;28;20128;-60
2023/12/08 04:34:19;;;;;;;30.15;18.50;;;2.20;99.90;;;;;;5008255;28;20544;-59
2023/12/08 04:36:44;;;;;;;33.72;19.55;;;2.10;99.90;;;;;;5007011;28;20092;-61
2023/12/08 04:39:10;;;;;;;31.10;18.20;;;2.10;99.90;;;;;;5013874;28;20038;-60
2023/12/08 04:41:36;;;;;;;31.38;19.20;;;2.10;99.90;;;;;;5010055;28;20045;-61
2023/12/08 04:44:02;;;;;;;34.03;19.15;;;2.20;99.90;;;;;;5009437;28;20037;-61
2023/12/08 04:46:29;;;;;;;32.90;17.85;;;2.10;99.90;;;;;;5024319;28;20041;-61
2023/12/08 04:48:54;;;;;;;34.00;18.48;;;2.20;99.90;;;;;;5009648;28;20116;-60
2023/12/08 04:51:20;;;;;;;30.88;18.80;;;2.10;99.90;;;;;;5023823;28;20076;-61
2023/12/08 04:53:46;;;;;;;33.15;19.60;;;2.20;99.90;;;;;;5007957;28;20056;-61
2023/12/08 04:56:12;;;;;;;31.92;19.95;;;2.10;99.90;;;;;;4997177;28;20037;-60
2023/12/08 04:58:39;;;;;;;32.63;20.13;;;2.10;99.90;;;;;;5008383;28;20045;-61
2023/12/08 05:01:04;;;;;;;34.28;19.83;;;2.10;99.90;;;;;;5028570;28;20059;-61
2023/12/08 05:03:30;;;;;;;36.47;21.02;;;2.10;99.90;;;;;;5009720;28;20057;-60
2023/12/08 05:05:56;;;;;;;39.03;21.33;;;2.10;99.90;;;;;;5018184;23;20966;-73
2023/12/08 05:08:23;;;;;;;38.63;21.40;;;2.10;99.90;;;;;;5027283;28;20108;-73
2023/12/08 05:10:48;;;;;;;36.75;20.42;;;2.10;99.90;;;;;;5004412;28;20463;-73
2023/12/08 05:13:15;;;;;;;34.63;19.65;;;2.10;99.90;;;;;;5006718;28;20045;-73
2023/12/08 05:15:41;;;;;;;38.08;20.58;;;2.00;99.90;;;;;;5027469;28;20048;-73
2023/12/08 05:18:07;;;;;;;39.70;20.17;;;2.00;99.90;;;;;;5010441;28;20112;-73
2023/12/08 05:20:33;;;;;;;32.65;19.13;;;2.00;99.90;;;;;;5026890;28;20572;-73
2023/12/08 05:22:58;;;;;;;35.83;20.02;;;2.00;99.90;;;;;;5026760;28;20045;-74
2023/12/08 05:25:24;;;;;;;36.15;20.55;;;2.00;99.90;;;;;;5008235;28;20573;-74
2023/12/08 05:27:49;;;;;;;37.58;21.38;;;2.00;99.90;;;;;;5030111;28;20072;-73
2023/12/08 05:30:15;;;;;;;38.53;20.95;;;2.00;99.90;;;;;;5026349;28;20040;-73
2023/12/08 05:32:41;;;;;;;40.13;21.67;;;2.00;99.90;;;;;;5027721;28;20459;-73
2023/12/08 05:35:07;;;;;;;37.05;21.33;;;1.90;99.90;;;;;;5011858;28;20083;-73
2023/12/08 05:37:33;;;;;;;35.92;21.00;;;1.90;99.90;;;;;;5012224;28;20063;-73
2023/12/08 05:39:58;;;;;;;39.17;21.27;;;1.90;99.90;;;;;;5023432;28;20692;-73
2023/12/08 05:42:24;;;;;;;35.75;21.15;;;1.90;99.90;;;;;;5007865;28;20033;-73
2023/12/08 05:44:50;;;;;;;33.15;19.60;;;1.90;99.90;;;;;;5012006;28;20062;-73
2023/12/08 05:47:15;;;;;;;33.75;20.20;;;1.90;99.90;;;;;;5023336;28;20044;-73
2023/12/08 05:49:41;;;;;;;34.58;19.80;;;1.90;99.90;;;;;;5010992;28;20642;-74
2023/12/08 05:52:07;;;;;;;37.45;21.25;;;1.90;99.90;;;;;;5022560;28;20029;-74
2023/12/08 05:54:32;;;;;;;39.17;22.40;;;1.90;99.90;;;;;;5041213;28;20555;-73
2023/12/08 05:56:58;;;;;;;38.65;21.27;;;1.90;99.90;;;;;;5024346;28;20449;-74
2023/12/08 05:59:24;;;;;;;36.08;20.48;;;1.90;99.90;;;;;;5021931;28;20150;-73
2023/12/08 06:01:50;;;;;;;36.55;21.42;;;1.90;99.90;;;;;;5028023;28;20044;-74
2023/12/08 06:04:16;;;;;;;39.80;21.70;;;1.90;99.90;;;;;;5022771;28;20124;-74
2023/12/08 06:06:42;;;;;;;37.97;21.48;;;1.90;99.90;;;;;;5027532;28;20171;-74
2023/12/08 06:09:07;;;;;;;38.83;20.92;;;1.90;99.90;;;;;;5024081;28;20040;-74
2023/12/08 06:11:33;;;;;;;40.60;22.40;;;1.90;99.90;;;;;;5032190;28;20029;-73
2023/12/08 06:13:59;;;;;;;36.83;20.25;;;1.90;99.90;;;;;;5010749;28;20040;-74
2023/12/08 06:16:25;;;;;;;39.17;21.83;;;1.90;99.90;;;;;;5027629;28;20563;-73
2023/12/08 06:18:51;;;;;;;40.05;22.02;;;1.90;99.90;;;;;;5028996;28;20041;-74
2023/12/08 06:21:17;;;;;;;37.05;20.13;;;1.80;99.90;;;;;;4999706;28;20525;-74
2023/12/08 06:23:42;;;;;;;41.28;21.70;;;1.80;99.90;;;;;;5010745;28;20111;-74
2023/12/08 06:26:08;;;;;;;33.53;19.88;;;1.80;99.90;;;;;;5010366;28;20494;-74
2023/12/08 06:28:34;;;;;;;38.05;21.10;;;1.90;99.90;;;;;;5023500;28;20087;-73
2023/12/08 06:31:01;;;;;;;39.78;22.20;;;1.90;99.90;;;;;;5009418;28;20095;-74
2023/12/08 06:33:27;;;;;;;37.97;20.52;;;1.80;99.90;;;;;;5026380;28;20399;-73
2023/12/08 06:35:52;;;;;;;38.95;22.45;;;1.90;99.90;;;;;;5022901;28;20043;-74
2023/12/08 06:38:18;;;;;;;38.20;20.75;;;1.90;99.90;;;;;;5012467;28;20116;-74
2023/12/08 06:40:44;;;;;;;40.58;22.48;;;1.80;99.90;;;;;;5045127;28;20037;-74
2023/12/08 06:43:09;;;;;;;36.00;21.15;;;1.90;99.90;;;;;;5008195;28;20655;-73
2023/12/08 06:45:35;;;;;;;40.47;22.52;;;1.80;99.90;;;;;;5016186;28;20041;-73
2023/12/08 06:48:01;;;;;;;38.08;22.10;;;1.80;99.90;;;;;;5027709;28;20045;-73
2023/12/08 06:50:27;;;;;;;39.65;21.98;;;1.80;99.90;;;;;;5011049;28;20037;-74
2023/12/08 06:52:52;;;;;;;46.90;23.15;;;1.80;99.90;;;;;;5025568;28;20453;-73
2023/12/08 06:55:18;;;;;;;42.42;22.60;;;1.90;99.90;;;;;;5007027;28;20562;-73
2023/12/08 06:57:44;;;;;;;46.05;22.20;;;1.90;99.90;;;;;;5029665;28;20148;-74
2023/12/08 07:00:10;;;;;;;44.33;23.63;;;1.80;99.90;;;;;;5022891;28;20121;-79
2023/12/08 07:02:36;;;;;;;42.67;22.00;;;1.90;99.90;;;;;;5008305;28;20374;-78
2023/12/08 07:05:02;;;;;;;41.17;22.02;;;1.90;99.90;;;;;;4997490;28;20036;-77
2023/12/08 07:07:31;;;;;;;39.15;22.20;;;1.90;99.90;;;;;;5032846;28;20552;-77
2023/12/08 07:09:57;;;;;;;41.90;22.10;;;2.00;99.90;;;;;;5008901;28;21449;-78
2023/12/08 07:12:23;;;;;;;38.80;22.15;;;1.90;99.90;;;;;;5039562;23;20045;-60
2023/12/08 07:14:50;;;;;;;42.47;22.95;;;1.90;99.90;;;;;;5043496;28;20152;-60
2023/12/08 07:17:16;;;;;;;37.13;21.05;;;1.90;99.90;;;;;;5027878;28;20460;-60
2023/12/08 07:19:42;;;;;;;47.33;25.08;;;1.90;99.90;;;;;;5022593;28;20041;-60
2023/12/08 07:22:08;;;;;;;38.63;21.40;;;2.00;99.90;;;;;;5023694;28;20053;-60
2023/12/08 07:24:35;;;;;;;41.83;23.05;;;1.90;99.90;;;;;;5014171;28;20789;-60
2023/12/08 07:27:01;;;;;;;45.17;24.40;;;2.00;99.90;;;;;;5026302;28;20048;-60
2023/12/08 07:29:26;;;;;;;42.50;23.40;;;2.00;99.90;;;;;;5020907;28;20492;-60
2023/12/08 07:31:52;;;;;;;39.33;23.52;;;2.00;99.90;;;;;;5023003;28;20112;-60
2023/12/08 07:34:18;;;;;;;39.63;22.00;;;1.90;99.90;;;;;;5026865;28;20099;-60
2023/12/08 07:36:43;;;;;;;40.03;22.27;;;2.00;99.90;;;;;;5040668;28;20044;-60
2023/12/08 07:39:09;;;;;;;41.88;22.65;;;2.10;99.90;;;;;;5025917;28;20034;-60
2023/12/08 07:41:36;;;;;;;40.88;22.95;;;2.00;99.90;;;;;;5027594;28;20484;-60
2023/12/08 07:44:01;;;;;;;44.72;23.92;;;2.00;99.90;;;;;;5026390;28;20045;-60
2023/12/08 07:46:30;;;;;;;42.17;23.90;;;2.00;99.90;;;;;;5024864;28;20092;-60
2023/12/08 07:48:55;;;;;;;43.03;23.92;;;2.00;99.90;;;;;;4997721;28;20037;-60
2023/12/08 07:51:21;;;;;;;44.72;24.42;;;2.00;99.90;;;;;;5024545;28;20045;-60
2023/12/08 07:53:47;;;;;;;44.38;24.80;;;2.10;99.90;;;;;;5018213;28;20087;-60
2023/12/08 07:56:13;;;;;;;44.15;24.70;;;2.00;99.90;;;;;;5020728;28;20045;-60
2023/12/08 07:58:39;;;;;;;43.63;23.58;;;2.00;99.90;;;;;;5008869;28;20447;-60
2023/12/08 08:01:05;;;;;;;44.97;24.92;;;2.10;99.90;;;;;;5025196;28;20071;-60
2023/12/08 08:03:31;;;;;;;42.85;23.40;;;2.10;99.90;;;;;;5045691;28;20037;-60
2023/12/08 08:05:57;;;;;;;44.42;24.85;;;2.10;99.90;;;;;;5007087;28;20080;-60
2023/12/08 08:08:23;;;;;;;42.67;24.15;;;2.10;99.90;;;;;;5026943;28;20112;-60
2023/12/08 08:10:49;;;;;;;48.33;25.73;;;2.00;99.90;;;;;;5009992;28;20039;-60
2023/12/08 08:13:15;;;;;;;47.05;24.60;;;2.00;99.90;;;;;;5001556;28;20048;-60
2023/12/08 08:15:40;;;;;;;43.13;24.35;;;2.00;99.90;;;;;;5043138;28;20551;-60
2023/12/08 08:18:06;;;;;;;38.88;22.48;;;2.00;99.90;;;;;;5022949;28;20037;-60
2023/12/08 08:20:32;;;;;;;44.95;25.05;;;2.10;99.90;;;;;;5020297;28;20045;-60
2023/12/08 08:22:58;;;;;;;48.00;25.38;;;2.10;99.90;;;;;;5009387;28;20048;-60
2023/12/08 08:25:24;;;;;;;43.47;24.40;;;2.00;99.90;;;;;;5033386;28;20081;-60
2023/12/08 08:27:53;;;;;;;45.13;24.17;;;2.00;99.90;;;;;;5022259;28;20120;-61
2023/12/08 08:30:20;;;;;;;42.58;24.40;;;2.00;99.90;;;;;;5020451;28;20045;-60
2023/12/08 08:32:45;;;;;;;50.15;25.42;;;2.10;99.90;;;;;;5007561;28;20480;-60
2023/12/08 08:35:11;;;;;;;46.65;25.75;;;2.10;99.90;;;;;;5021121;28;20041;-60
2023/12/08 08:37:37;;;;;;;46.33;26.20;;;2.10;99.90;;;;;;5009765;28;20045;-60
2023/12/08 08:40:05;;;;;;;49.47;24.40;;;2.10;99.90;;;;;;5011414;28;20040;-60
2023/12/08 08:42:31;;;;;;;44.85;24.10;;;2.10;99.90;;;;;;5022252;28;20045;-60
2023/12/08 08:44:57;;;;;;;46.65;24.27;;;2.10;99.90;;;;;;5018495;28;20545;-60
2023/12/08 08:47:23;;;;;;;44.67;23.60;;;2.10;99.90;;;;;;5022419;28;20098;-60
2023/12/08 08:49:49;;;;;;;43.17;25.17;;;2.20;99.90;;;;;;5009542;28;20067;-60
2023/12/08 08:52:15;;;;;;;51.63;25.83;;;2.10;99.90;;;;;;5024189;28;20036;-60
2023/12/08 08:54:41;;;;;;;45.25;24.33;;;2.20;99.90;;;;;;5014395;28;20052;-60
2023/12/08 08:57:13;;;;;;;46.58;24.85;;;2.10;99.90;;;;;;5030109;28;20040;-60
2023/12/08 08:59:38;;;;;;;43.45;25.33;;;2.20;99.90;;;;;;5023185;28;20044;-60
2023/12/08 09:02:04;;;;;;;43.20;24.20;;;2.20;99.90;;;;;;5010976;28;20041;-61
2023/12/08 09:04:30;;;;;;;44.28;24.15;;;2.20;99.90;;;;;;5021772;28;20088;-60
2023/12/08 09:06:56;;;;;;;45.17;25.05;;;2.30;99.90;;;;;;5023804;28;20440;-61
2023/12/08 09:09:22;;;;;;;44.83;24.98;;;2.20;99.90;;;;;;5028156;28;20095;-60
2023/12/08 09:11:48;;;;;;;44.33;24.00;;;2.20;99.90;;;;;;5020033;28;20075;-60
2023/12/08 09:14:15;;;;;;;41.75;24.10;;;2.20;99.90;;;;;;5033934;28;20045;-60
2023/12/08 09:16:41;;;;;;;46.28;25.02;;;2.20;99.90;;;;;;5019328;28;20041;-61
2023/12/08 09:19:06;;;;;;;43.72;25.80;;;2.20;99.90;;;;;;5022705;28;20044;-60
2023/12/08 09:21:32;;;;;;;43.05;25.17;;;2.20;99.90;;;;;;5023166;28;20087;-60
2023/12/08 09:23:58;;;;;;;44.95;24.73;;;2.20;99.90;;;;;;5012899;28;20546;-60
2023/12/08 09:26:24;;;;;;;46.30;25.27;;;2.20;99.90;;;;;;5009160;28;20052;-60
2023/12/08 09:28:50;;;;;;;41.38;24.00;;;2.20;99.90;;;;;;5024765;28;20045;-60
2023/12/08 09:31:16;;;;;;;45.65;24.42;;;2.20;99.90;;;;;;5013350;28;20045;-61
2023/12/08 09:33:42;;;;;;;44.58;24.70;;;2.30;99.90;;;;;;5026395;28;20060;-60
2023/12/08 09:36:08;;;;;;;42.70;25.13;;;2.30;99.90;;;;;;5045836;28;20029;-60
2023/12/08 09:38:34;;;;;;;45.22;24.77;;;2.30;99.90;;;;;;5028504;28;20047;-60
2023/12/08 09:41:04;;;;;;;45.13;25.10;;;2.30;99.90;;;;;;5021200;28;20044;-60
2023/12/08 09:43:42;;;;;;;46.35;25.88;;;2.30;99.90;;;;;;5028031;28;20586;-60
2023/12/08 09:46:09;;;;;;;46.75;24.88;;;2.30;99.90;;;;;;5024868;28;20060;-60
2023/12/08 09:48:37;;;;;;;46.03;24.80;;;2.40;99.90;;;;;;5028381;28;20062;-60
2023/12/08 09:51:04;;;;;;;45.38;24.77;;;2.40;99.90;;;;;;5045665;28;20036;-60
2023/12/08 09:53:32;;;;;;;44.13;25.42;;;2.40;99.90;;;;;;5028681;28;20048;-60
2023/12/08 09:55:58;;;;;;;46.38;26.48;;;2.40;99.90;;;;;;5024616;28;20747;-60
2023/12/08 09:58:26;;;;;;;46.00;24.52;;;2.40;99.90;;;;;;5017342;28;20103;-60
2023/12/08 10:00:52;;;;;;;43.08;25.67;;;2.50;99.90;;;;;;5023502;28;20735;-60
2023/12/08 10:03:19;;;;;;;45.72;25.00;;;2.50;99.90;;;;;;5019122;28;20045;-60
2023/12/08 10:05:53;;;;;;;48.03;26.77;;;2.50;99.90;;;;;;5057934;28;20775;-59
2023/12/08 10:08:20;;;;;;;46.50;24.52;;;2.60;99.90;;;;;;5037270;28;20144;-59
2023/12/08 10:10:46;;;;;;;47.40;25.05;;;2.60;99.90;;;;;;5056357;28;20056;-59
2023/12/08 10:13:12;;;;;;;43.95;24.48;;;2.60;99.90;;;;;;5042008;28;20064;-59
2023/12/08 10:15:43;;;;;;;44.08;25.40;;;2.60;99.90;;;;;;5054006;28;21647;-59
2023/12/08 10:18:25;;;;;;;48.33;26.58;;;2.60;99.90;;;;;;5038315;28;20059;-59
2023/12/08 10:21:11;;;;;;;50.60;26.08;;;2.70;99.90;;;;;;5059846;28;20037;-59
2023/12/08 10:23:37;;;;;;;48.58;26.35;;;2.70;99.90;;;;;;5072053;28;20116;-59
2023/12/08 10:26:04;;;;;;;45.38;25.20;;;2.70;99.90;;;;;;5042484;28;20730;-59
2023/12/08 10:28:33;;;;;;;46.53;25.45;;;2.70;99.90;;;;;;5040061;28;20040;-59
2023/12/08 10:30:59;;;;;;;47.15;25.40;;;2.70;99.90;;;;;;5041562;28;20041;-58
2023/12/08 10:33:25;;;;;;;45.35;25.83;;;2.70;99.90;;;;;;5055538;28;20040;-59
2023/12/08 10:35:51;;;;;;;47.92;26.15;;;2.70;99.90;;;;;;5054277;28;20039;-59
2023/12/08 10:38:18;;;;;;;48.05;27.50;;;2.70;99.90;;;;;;5052059;28;20029;-59
2023/12/08 10:40:52;;;;;;;45.85;27.38;;;2.80;99.90;;;;;;5049381;28;20048;-59
2023/12/08 10:43:25;;;;;;;53.00;27.77;;;2.80;99.90;;;;;;5052745;28;20089;-58
2023/12/08 10:45:55;;;;;;;56.50;27.73;;;2.80;99.90;;;;;;5048304;28;20487;-59
2023/12/08 10:48:24;;;;;;;51.70;26.73;;;2.80;99.90;;;;;;5050200;28;20045;-58
2023/12/08 10:50:52;;;;;;;49.38;26.55;;;2.80;99.90;;;;;;5032982;28;20041;-59
2023/12/08 10:53:20;;;;;;;51.10;26.05;;;2.80;99.90;;;;;;5033838;28;20032;-59
2023/12/08 10:55:52;;;;;;;46.17;26.15;;;2.90;99.90;;;;;;5038632;28;20049;-59
2023/12/08 10:58:20;;;;;;;51.72;26.95;;;2.90;99.90;;;;;;5052569;28;20060;-59
2023/12/08 11:00:48;;;;;;;50.22;26.85;;;2.90;99.90;;;;;;5054066;28;20051;-59
2023/12/08 11:03:19;;;;;;;51.15;27.63;;;2.90;99.90;;;;;;5055731;28;20041;-59
2023/12/08 11:05:49;;;;;;;52.60;27.75;;;2.90;99.90;;;;;;5054876;28;20063;-59
2023/12/08 11:08:18;;;;;;;53.45;27.63;;;2.90;99.90;;;;;;5046075;28;20048;-59
2023/12/08 11:10:49;;;;;;;51.40;26.38;;;3.00;99.90;;;;;;5037884;28;20067;-59
2023/12/08 11:13:28;;;;;;;56.88;28.23;;;3.00;99.90;;;;;;5054569;28;20123;-59
2023/12/08 11:16:46;;;;;;;50.60;26.98;;;3.00;99.90;;;;;;5042758;28;20051;-59
2023/12/08 11:19:14;;;;;;;55.67;26.52;;;3.00;99.90;;;;;;4980071;28;20040;-59
2023/12/08 11:21:40;;;;;;;49.70;27.48;;;3.00;99.90;;;;;;5039145;28;20037;-59
2023/12/08 11:24:08;;;;;;;53.13;28.27;;;3.00;99.90;;;;;;5021849;28;20195;-59
2023/12/08 11:26:50;;;;;;;56.55;28.48;;;3.10;99.90;;;;;;5035448;28;20048;-59
2023/12/08 11:29:43;;;;;;;52.50;25.90;;;3.00;99.90;;;;;;5026954;28;20072;-59
2023/12/08 11:32:19;;;;;;;54.78;27.98;;;3.00;99.90;;;;;;5023919;28;20032;-58
2023/12/08 11:34:56;;;;;;;53.25;26.83;;;3.10;99.90;;;;;;5038860;28;20056;-58
2023/12/08 11:37:22;;;;;;;53.88;27.85;;;3.10;99.90;;;;;;5023372;28;20045;-62
2023/12/08 11:39:48;;;;;;;48.42;25.23;;;3.10;99.90;;;;;;5025651;28;20072;-61
2023/12/08 11:42:18;;;;;;;51.05;27.48;;;3.10;99.90;;;;;;5025831;28;20526;-59
2023/12/08 11:44:45;;;;;;;53.78;27.33;;;3.10;99.90;;;;;;5039068;28;20060;-58
2023/12/08 11:47:16;;;;;;;52.33;27.92;;;3.10;99.90;;;;;;5044235;28;20047;-59
2023/12/08 11:49:47;;;;;;;57.83;27.77;;;3.20;99.90;;;;;;5045042;28;20153;-59
2023/12/08 11:52:26;;;;;;;62.45;28.05;;;3.20;99.90;;;;;;5039242;28;20036;-58
2023/12/08 11:55:24;;;;;;;55.28;28.35;;;3.20;99.90;;;;;;5040554;28;20108;-58
2023/12/08 11:57:54;;;;;;;52.50;26.58;;;3.20;99.90;;;;;;5036324;28;20092;-58
2023/12/08 12:00:22;;;;;;;60.08;29.70;;;3.20;99.90;;;;;;5021313;28;20041;-58
2023/12/08 12:02:52;;;;;;;62.90;29.33;;;3.30;99.90;;;;;;5044193;28;20060;-59
2023/12/08 12:05:19;;;;;;;52.72;26.48;;;3.20;99.90;;;;;;5036998;28;20451;-59
2023/12/08 12:07:50;;;;;;;57.00;28.70;;;3.30;99.90;;;;;;5022351;28;20049;-59
2023/12/08 12:10:19;;;;;;;49.13;26.25;;;3.30;99.90;;;;;;5038132;28;20476;-58
2023/12/08 12:13:12;;;;;;;60.35;27.17;;;3.30;99.90;;;;;;5040288;28;20040;-59
2023/12/08 12:15:40;;;;;;;57.47;26.75;;;3.30;99.90;;;;;;5051152;28;20737;-59
2023/12/08 12:18:07;;;;;;;61.72;29.58;;;3.30;99.90;;;;;;5036499;28;20128;-59
2023/12/08 12:20:34;;;;;;;58.00;28.13;;;3.30;99.90;;;;;;5023858;28;20033;-59
2023/12/08 12:23:01;;;;;;;61.65;29.92;;;3.30;99.90;;;;;;5039454;28;20593;-59
2023/12/08 12:25:27;;;;;;;60.80;29.05;;;3.40;99.90;;;;;;5022785;28;20053;-59
2023/12/08 12:27:55;;;;;;;63.30;30.00;;;3.40;99.90;;;;;;5043808;28;20091;-59
2023/12/08 12:30:22;;;;;;;64.38;29.55;;;3.40;99.90;;;;;;5023435;28;20036;-59
2023/12/08 12:32:48;;;;;;;56.33;29.35;;;3.40;99.90;;;;;;5039235;28;20068;-59
2023/12/08 12:35:15;;;;;;;58.78;27.50;;;3.40;99.90;;;;;;5020715;28;20182;-59
2023/12/08 12:37:41;;;;;;;67.28;30.27;;;3.40;99.90;;;;;;5039792;28;20050;-59